createdAt,value
2019-03-25T00:00:21.049Z,42.24
2019-03-25T00:01:20.802Z,42.23
2019-03-25T00:02:20.819Z,42.26
2019-03-25T00:03:20.907Z,42.24
2019-03-25T00:04:20.889Z,42.26
2019-03-25T00:05:21.047Z,42.24
2019-03-25T00:06:20.824Z,42.23
2019-03-25T00:07:20.911Z,42.28
2019-03-25T00:08:21.025Z,42.27
2019-03-25T00:09:20.856Z,42.28
2019-03-25T00:10:20.890Z,42.28
2019-03-25T00:11:21.000Z,42.35
2019-03-25T00:12:20.935Z,42.28
2019-03-25T00:13:20.993Z,42.33
2019-03-25T00:14:21.216Z,42.33
2019-03-25T00:15:21.052Z,42.31
2019-03-25T00:16:21.015Z,42.31
2019-03-25T00:17:21.031Z,42.31
2019-03-25T00:18:20.993Z,42.28
2019-03-25T00:19:21.036Z,42.36
2019-03-25T00:20:20.811Z,42.31
2019-03-25T00:21:21.062Z,42.29
2019-03-25T00:22:20.939Z,42.28
2019-03-25T00:23:20.965Z,42.33
2019-03-25T00:24:20.975Z,42.25
2019-03-25T00:25:20.920Z,42.26
2019-03-25T00:26:20.951Z,42.31
2019-03-25T00:27:20.875Z,42.29
2019-03-25T00:28:20.986Z,42.3
2019-03-25T00:29:20.927Z,42.29
2019-03-25T00:30:20.955Z,42.31
2019-03-25T00:31:20.995Z,42.27
2019-03-25T00:32:21.001Z,42.27
2019-03-25T00:33:20.990Z,42.26
2019-03-25T00:34:21.030Z,42.27
2019-03-25T00:35:21.305Z,42.27
2019-03-25T00:36:21.403Z,42.26
2019-03-25T00:37:21.425Z,42.27
2019-03-25T00:38:20.912Z,42.29
2019-03-25T00:39:20.797Z,42.29
2019-03-25T00:40:20.914Z,42.29
2019-03-25T00:41:20.811Z,42.29
2019-03-25T00:42:20.799Z,42.29
2019-03-25T00:43:20.973Z,42.31
2019-03-25T00:44:20.842Z,42.32
2019-03-25T00:45:20.900Z,42.31
2019-03-25T00:46:20.894Z,42.29
2019-03-25T00:47:20.873Z,42.31
2019-03-25T00:48:20.914Z,42.33
2019-03-25T00:49:21.057Z,42.31
2019-03-25T00:50:21.247Z,42.32
2019-03-25T00:51:20.953Z,42.27
2019-03-25T00:52:21.001Z,42.26
2019-03-25T00:53:21.032Z,42.27
2019-03-25T00:54:21.011Z,42.27
2019-03-25T00:55:21.125Z,42.27
2019-03-25T00:56:20.866Z,42.22
2019-03-25T00:57:20.873Z,42.26
2019-03-25T00:58:20.938Z,42.31
2019-03-25T00:59:20.939Z,42.27
2019-03-25T01:00:20.949Z,42.27
2019-03-25T01:01:21.036Z,42.26
2019-03-25T01:02:20.881Z,42.29
2019-03-25T01:03:21.011Z,42.25
2019-03-25T01:04:20.949Z,42.25
2019-03-25T01:05:20.920Z,42.28
2019-03-25T01:06:21.034Z,42.28
2019-03-25T01:07:20.969Z,42.28
2019-03-25T01:08:20.982Z,42.29
2019-03-25T01:09:21.160Z,42.25
2019-03-25T01:10:21.012Z,42.26
2019-03-25T01:11:21.078Z,42.32
2019-03-25T01:12:21.020Z,42.28
2019-03-25T01:13:21.071Z,42.25
2019-03-25T01:14:20.748Z,42.3
2019-03-25T01:15:20.946Z,42.33
2019-03-25T01:16:21.050Z,42.28
2019-03-25T01:17:20.797Z,42.29
2019-03-25T01:18:20.806Z,42.3
2019-03-25T01:19:20.856Z,42.31
2019-03-25T01:20:22.120Z,42.25
2019-03-25T01:21:20.861Z,42.26
2019-03-25T01:22:20.956Z,42.26
2019-03-25T01:23:20.880Z,42.26
2019-03-25T01:24:21.041Z,42.25
2019-03-25T01:25:21.073Z,42.26
2019-03-25T01:26:21.010Z,42.25
2019-03-25T01:27:20.941Z,42.25
2019-03-25T01:28:21.143Z,42.27
2019-03-25T01:29:20.955Z,42.3
2019-03-25T01:30:20.955Z,42.23
2019-03-25T01:31:21.101Z,42.27
2019-03-25T01:32:21.090Z,42.27
2019-03-25T01:33:20.778Z,42.27
2019-03-25T01:34:20.842Z,42.27
2019-03-25T01:35:20.817Z,42.27
2019-03-25T01:36:20.827Z,42.27
2019-03-25T01:37:20.959Z,42.27
2019-03-25T01:38:20.838Z,42.27
2019-03-25T01:39:20.936Z,42.2
2019-03-25T01:40:20.893Z,42.31
2019-03-25T01:41:21.123Z,42.29
2019-03-25T01:42:20.938Z,42.22
2019-03-25T01:43:21.029Z,42.27
2019-03-25T01:44:20.969Z,42.24
2019-03-25T01:45:21.032Z,42.23
2019-03-25T01:46:20.962Z,42.25
2019-03-25T01:47:21.212Z,42.24
2019-03-25T01:48:21.047Z,42.23
2019-03-25T01:49:21.016Z,42.24
2019-03-25T01:50:20.982Z,42.28
2019-03-25T01:51:21.024Z,42.27
2019-03-25T01:52:20.754Z,42.32
2019-03-25T01:53:20.737Z,42.25
2019-03-25T01:54:20.826Z,42.25
2019-03-25T01:55:20.807Z,42.22
2019-03-25T01:56:20.820Z,42.24
2019-03-25T01:57:20.876Z,42.24
2019-03-25T01:58:20.837Z,42.21
2019-03-25T01:59:20.840Z,42.23
2019-03-25T02:00:20.844Z,42.25
2019-03-25T02:01:21.015Z,42.24
2019-03-25T02:02:21.203Z,42.23
2019-03-25T02:03:21.332Z,42.24
2019-03-25T02:04:20.945Z,42.23
2019-03-25T02:05:20.909Z,42.25
2019-03-25T02:06:21.059Z,42.23
2019-03-25T02:07:20.966Z,42.25
2019-03-25T02:08:20.958Z,42.21
2019-03-25T02:09:21.084Z,42.2
2019-03-25T02:10:21.020Z,42.21
2019-03-25T02:11:22.750Z,42.22
2019-03-25T02:12:20.771Z,42.21
2019-03-25T02:13:20.881Z,42.17
2019-03-25T02:14:20.935Z,42.2
2019-03-25T02:15:20.813Z,42.21
2019-03-25T02:16:20.861Z,42.17
2019-03-25T02:17:20.871Z,42.26
2019-03-25T02:18:20.853Z,42.24
2019-03-25T02:19:20.907Z,42.27
2019-03-25T02:20:27.202Z,42.25
2019-03-25T02:21:21.006Z,42.2
2019-03-25T02:22:20.964Z,42.21
2019-03-25T02:23:20.994Z,42.24
2019-03-25T02:24:21.294Z,42.2
2019-03-25T02:25:26.353Z,42.22
2019-03-25T02:26:20.989Z,42.15
2019-03-25T02:27:21.119Z,42.18
2019-03-25T02:28:21.015Z,42.18
2019-03-25T02:29:20.718Z,42.18
2019-03-25T02:30:20.711Z,42.17
2019-03-25T02:31:20.833Z,42.18
2019-03-25T02:32:20.837Z,42.15
2019-03-25T02:33:20.870Z,42.19
2019-03-25T02:34:20.845Z,42.19
2019-03-25T02:35:20.946Z,42.19
2019-03-25T02:36:20.851Z,42.15
2019-03-25T02:37:20.922Z,42.23
2019-03-25T02:38:20.850Z,42.19
2019-03-25T02:39:21.044Z,42.16
2019-03-25T02:40:21.002Z,42.18
2019-03-25T02:41:20.925Z,42.22
2019-03-25T02:42:20.912Z,42.21
2019-03-25T02:43:20.924Z,42.18
2019-03-25T02:44:21.029Z,42.15
2019-03-25T02:45:21.068Z,42.15
2019-03-25T02:46:21.347Z,42.14
2019-03-25T02:47:20.760Z,42.16
2019-03-25T02:48:20.780Z,42.15
2019-03-25T02:49:20.838Z,42.14
2019-03-25T02:50:20.844Z,42.1
2019-03-25T02:51:20.842Z,42.14
2019-03-25T02:52:20.909Z,42.09
2019-03-25T02:53:20.851Z,42.13
2019-03-25T02:54:20.922Z,42.14
2019-03-25T02:55:20.910Z,42.16
2019-03-25T02:56:20.927Z,42.12
2019-03-25T02:57:20.868Z,42.13
2019-03-25T02:58:21.146Z,42.1
2019-03-25T02:59:21.062Z,42.1
2019-03-25T03:00:20.944Z,42.16
2019-03-25T03:01:20.975Z,42.18
2019-03-25T03:02:21.068Z,42.12
2019-03-25T03:03:21.101Z,42.12
2019-03-25T03:04:21.038Z,42.15
2019-03-25T03:05:21.002Z,42.16
2019-03-25T03:06:20.782Z,42.15
2019-03-25T03:07:20.800Z,42.15
2019-03-25T03:08:20.896Z,42.12
2019-03-25T03:09:20.816Z,42.19
2019-03-25T03:10:20.863Z,42.16
2019-03-25T03:11:20.783Z,42.12
2019-03-25T03:12:20.931Z,42.12
2019-03-25T03:13:20.968Z,42.13
2019-03-25T03:14:21.010Z,42.13
2019-03-25T03:15:20.993Z,42.07
2019-03-25T03:16:20.889Z,42.09
2019-03-25T03:17:20.834Z,42.1
2019-03-25T03:18:21.090Z,42.07
2019-03-25T03:19:21.075Z,42.11
2019-03-25T03:20:20.944Z,42.07
2019-03-25T03:21:20.927Z,42.09
2019-03-25T03:22:20.963Z,42.12
2019-03-25T03:23:20.992Z,42.11
2019-03-25T03:24:20.845Z,42.12
2019-03-25T03:25:21.008Z,42.07
2019-03-25T03:26:20.813Z,42.09
2019-03-25T03:27:20.910Z,42.12
2019-03-25T03:28:20.848Z,42.07
2019-03-25T03:29:20.893Z,42.07
2019-03-25T03:30:21.111Z,42.08
2019-03-25T03:31:21.093Z,42.04
2019-03-25T03:32:20.969Z,42.08
2019-03-25T03:33:21.048Z,42.08
2019-03-25T03:34:21.019Z,42.03
2019-03-25T03:35:21.081Z,42.05
2019-03-25T03:36:20.999Z,42.07
2019-03-25T03:37:20.994Z,42.03
2019-03-25T03:38:21.021Z,42.02
2019-03-25T03:39:20.976Z,42.02
2019-03-25T03:40:21.095Z,42.04
2019-03-25T03:41:20.968Z,42.07
2019-03-25T03:42:21.105Z,42.09
2019-03-25T03:43:20.749Z,42.1
2019-03-25T03:44:20.989Z,42.04
2019-03-25T03:45:20.781Z,42.02
2019-03-25T03:46:20.798Z,42.05
2019-03-25T03:47:20.765Z,42.06
2019-03-25T03:48:20.815Z,42.08
2019-03-25T03:49:20.898Z,42.07
2019-03-25T03:50:21.194Z,42.06
2019-03-25T03:51:21.024Z,42.08
2019-03-25T03:52:20.895Z,42.03
2019-03-25T03:53:20.834Z,41.99
2019-03-25T03:54:20.832Z,42.06
2019-03-25T03:55:21.035Z,42.02
2019-03-25T03:56:20.875Z,42.03
2019-03-25T03:57:20.933Z,42.03
2019-03-25T03:58:21.044Z,42.05
2019-03-25T03:59:21.018Z,42.06
2019-03-25T04:00:20.936Z,42.06
2019-03-25T04:01:20.994Z,42.01
2019-03-25T04:02:20.868Z,42.02
2019-03-25T04:03:20.969Z,41.99
2019-03-25T04:04:20.793Z,42.02
2019-03-25T04:05:20.954Z,42.09
2019-03-25T04:06:20.841Z,42.01
2019-03-25T04:07:20.930Z,42.02
2019-03-25T04:08:20.943Z,42.04
2019-03-25T04:09:20.921Z,41.99
2019-03-25T04:10:20.925Z,41.99
2019-03-25T04:11:20.947Z,42.03
2019-03-25T04:12:21.104Z,42.02
2019-03-25T04:13:21.292Z,42
2019-03-25T04:14:21.012Z,42.02
2019-03-25T04:15:20.920Z,42
2019-03-25T04:16:21.041Z,41.98
2019-03-25T04:17:20.963Z,41.99
2019-03-25T04:18:21.069Z,42.01
2019-03-25T04:19:21.009Z,42.02
2019-03-25T04:20:20.682Z,42.02
2019-03-25T04:21:20.752Z,41.99
2019-03-25T04:22:20.769Z,41.98
2019-03-25T04:23:20.821Z,41.99
2019-03-25T04:24:20.773Z,41.98
2019-03-25T04:25:20.986Z,41.99
2019-03-25T04:26:29.967Z,42.02
2019-03-25T04:27:20.831Z,42.03
2019-03-25T04:28:20.812Z,41.99
2019-03-25T04:29:20.864Z,41.98
2019-03-25T04:30:20.861Z,42.02
2019-03-25T04:31:20.907Z,41.95
2019-03-25T04:32:20.853Z,42
2019-03-25T04:33:20.877Z,41.98
2019-03-25T04:34:20.970Z,42
2019-03-25T04:35:20.871Z,41.95
2019-03-25T04:36:21.009Z,41.95
2019-03-25T04:37:21.049Z,41.98
2019-03-25T04:38:20.942Z,41.94
2019-03-25T04:39:21.112Z,41.98
2019-03-25T04:40:20.752Z,41.95
2019-03-25T04:41:20.861Z,41.96
2019-03-25T04:42:20.749Z,41.97
2019-03-25T04:43:20.891Z,41.97
2019-03-25T04:44:20.790Z,41.92
2019-03-25T04:45:20.769Z,41.9
2019-03-25T04:46:20.944Z,41.88
2019-03-25T04:47:20.823Z,41.93
2019-03-25T04:48:20.823Z,41.88
2019-03-25T04:49:20.901Z,41.85
2019-03-25T04:50:20.983Z,41.83
2019-03-25T04:51:20.880Z,41.82
2019-03-25T04:52:20.910Z,41.79
2019-03-25T04:53:21.165Z,41.82
2019-03-25T04:54:20.907Z,41.82
2019-03-25T04:55:21.710Z,41.84
2019-03-25T04:56:21.204Z,41.8
2019-03-25T04:57:21.050Z,41.8
2019-03-25T04:58:20.712Z,41.76
2019-03-25T04:59:20.683Z,41.74
2019-03-25T05:00:20.711Z,41.69
2019-03-25T05:01:20.738Z,41.71
2019-03-25T05:02:20.747Z,41.69
2019-03-25T05:03:20.739Z,41.66
2019-03-25T05:04:20.770Z,41.63
2019-03-25T05:05:20.869Z,41.58
2019-03-25T05:06:20.810Z,41.61
2019-03-25T05:07:21.022Z,41.56
2019-03-25T05:08:20.794Z,41.59
2019-03-25T05:09:20.791Z,41.57
2019-03-25T05:10:20.828Z,41.54
2019-03-25T05:11:31.205Z,41.61
2019-03-25T05:12:21.061Z,41.58
2019-03-25T05:13:20.928Z,41.58
2019-03-25T05:14:20.981Z,41.64
2019-03-25T05:15:20.893Z,41.59
2019-03-25T05:16:20.939Z,41.57
2019-03-25T05:17:20.793Z,41.55
2019-03-25T05:18:20.770Z,41.55
2019-03-25T05:19:20.745Z,41.54
2019-03-25T05:20:20.710Z,41.5
2019-03-25T05:21:21.101Z,41.54
2019-03-25T05:22:20.891Z,41.57
2019-03-25T05:23:20.778Z,41.57
2019-03-25T05:24:20.773Z,41.56
2019-03-25T05:25:20.826Z,41.54
2019-03-25T05:26:20.863Z,41.55
2019-03-25T05:27:21.187Z,41.56
2019-03-25T05:28:20.983Z,41.58
2019-03-25T05:29:20.852Z,41.58
2019-03-25T05:30:23.304Z,41.53
2019-03-25T05:31:20.914Z,41.5
2019-03-25T05:32:20.900Z,41.54
2019-03-25T05:33:20.903Z,41.55
2019-03-25T05:34:20.950Z,41.54
2019-03-25T05:35:20.987Z,41.51
2019-03-25T05:36:20.654Z,41.6
2019-03-25T05:37:20.681Z,41.59
2019-03-25T05:38:20.686Z,41.53
2019-03-25T05:39:20.690Z,41.5
2019-03-25T05:40:20.749Z,41.49
2019-03-25T05:41:20.798Z,41.55
2019-03-25T05:42:20.830Z,41.51
2019-03-25T05:43:21.554Z,41.48
2019-03-25T05:44:20.763Z,41.53
2019-03-25T05:45:20.800Z,41.5
2019-03-25T05:46:20.795Z,41.51
2019-03-25T05:47:20.800Z,41.53
2019-03-25T05:48:20.828Z,41.48
2019-03-25T05:49:20.949Z,41.52
2019-03-25T05:50:20.853Z,41.5
2019-03-25T05:51:20.884Z,41.48
2019-03-25T05:52:20.870Z,41.5
2019-03-25T05:53:20.881Z,41.5
2019-03-25T05:54:20.924Z,41.46
2019-03-25T05:55:20.704Z,41.47
2019-03-25T05:56:20.825Z,41.44
2019-03-25T05:57:20.737Z,41.45
2019-03-25T05:58:20.773Z,41.45
2019-03-25T05:59:20.778Z,41.52
2019-03-25T06:00:20.897Z,41.44
2019-03-25T06:01:20.794Z,41.41
2019-03-25T06:02:20.884Z,41.46
2019-03-25T06:03:20.782Z,41.43
2019-03-25T06:04:20.975Z,41.36
2019-03-25T06:05:20.808Z,41.4
2019-03-25T06:06:20.846Z,41.39
2019-03-25T06:07:20.897Z,41.39
2019-03-25T06:08:20.832Z,41.45
2019-03-25T06:09:21.021Z,41.37
2019-03-25T06:10:20.907Z,41.41
2019-03-25T06:11:20.902Z,41.48
2019-03-25T06:12:21.038Z,41.42
2019-03-25T06:13:20.684Z,41.41
2019-03-25T06:14:20.771Z,41.45
2019-03-25T06:15:20.663Z,41.39
2019-03-25T06:16:20.703Z,41.42
2019-03-25T06:17:20.690Z,41.43
2019-03-25T06:18:20.798Z,41.37
2019-03-25T06:19:20.778Z,41.38
2019-03-25T06:20:20.813Z,41.37
2019-03-25T06:21:20.749Z,41.45
2019-03-25T06:22:21.020Z,41.38
2019-03-25T06:23:20.794Z,41.43
2019-03-25T06:24:20.847Z,41.4
2019-03-25T06:25:21.087Z,41.39
2019-03-25T06:26:20.983Z,41.42
2019-03-25T06:27:21.019Z,41.43
2019-03-25T06:28:20.878Z,41.44
2019-03-25T06:29:20.958Z,41.42
2019-03-25T06:30:20.994Z,41.43
2019-03-25T06:31:20.731Z,41.4
2019-03-25T06:32:20.708Z,41.46
2019-03-25T06:33:20.782Z,41.4
2019-03-25T06:34:20.756Z,41.39
2019-03-25T06:35:20.716Z,41.44
2019-03-25T06:36:20.731Z,41.37
2019-03-25T06:37:20.828Z,41.43
2019-03-25T06:38:20.765Z,41.39
2019-03-25T06:39:20.770Z,41.42
2019-03-25T06:40:20.865Z,41.44
2019-03-25T06:41:20.797Z,41.4
2019-03-25T06:42:20.887Z,41.44
2019-03-25T06:43:21.337Z,41.44
2019-03-25T06:44:21.171Z,41.44
2019-03-25T06:45:21.198Z,41.4
2019-03-25T06:46:22.630Z,41.45
2019-03-25T06:47:20.869Z,41.43
2019-03-25T06:48:21.038Z,41.44
2019-03-25T06:49:21.164Z,41.4
2019-03-25T06:50:20.696Z,41.48
2019-03-25T06:51:20.650Z,41.43
2019-03-25T06:52:20.696Z,41.46
2019-03-25T06:53:20.673Z,41.41
2019-03-25T06:54:20.761Z,41.43
2019-03-25T06:55:20.747Z,41.43
2019-03-25T06:56:20.734Z,41.43
2019-03-25T06:57:26.250Z,41.43
2019-03-25T06:58:20.919Z,41.4
2019-03-25T06:59:20.766Z,41.41
2019-03-25T07:00:20.762Z,41.39
2019-03-25T07:01:20.795Z,41.41
2019-03-25T07:02:20.815Z,41.43
2019-03-25T07:03:20.771Z,41.44
2019-03-25T07:04:20.851Z,41.43
2019-03-25T07:05:21.347Z,41.38
2019-03-25T07:06:20.854Z,41.45
2019-03-25T07:07:20.891Z,41.45
2019-03-25T07:08:20.894Z,41.42
2019-03-25T07:09:20.677Z,41.43
2019-03-25T07:10:20.783Z,41.46
2019-03-25T07:11:20.781Z,41.45
2019-03-25T07:12:20.717Z,41.43
2019-03-25T07:13:20.779Z,41.45
2019-03-25T07:14:20.830Z,41.42
2019-03-25T07:15:20.807Z,41.49
2019-03-25T07:16:20.793Z,41.45
2019-03-25T07:17:20.780Z,41.44
2019-03-25T07:18:20.802Z,41.45
2019-03-25T07:19:20.966Z,41.45
2019-03-25T07:20:20.827Z,41.43
2019-03-25T07:21:20.877Z,41.42
2019-03-25T07:22:20.888Z,41.38
2019-03-25T07:23:20.851Z,41.45
2019-03-25T07:24:20.922Z,41.44
2019-03-25T07:25:20.904Z,41.43
2019-03-25T07:26:20.973Z,41.41
2019-03-25T07:27:20.782Z,41.44
2019-03-25T07:28:20.687Z,41.39
2019-03-25T07:29:20.765Z,41.34
2019-03-25T07:30:20.653Z,41.37
2019-03-25T07:31:20.816Z,41.39
2019-03-25T07:32:20.809Z,41.39
2019-03-25T07:33:20.676Z,41.39
2019-03-25T07:34:20.782Z,41.39
2019-03-25T07:35:22.771Z,41.42
2019-03-25T07:36:20.733Z,40.93
2019-03-25T07:37:20.784Z,39.77
2019-03-25T07:38:20.776Z,39.37
2019-03-25T07:39:20.895Z,39.12
2019-03-25T07:40:20.824Z,38.96
2019-03-25T07:41:20.827Z,38.66
2019-03-25T07:42:20.822Z,38.93
2019-03-25T07:43:21.015Z,39.05
2019-03-25T07:44:20.843Z,39.33
2019-03-25T07:45:20.692Z,39.39
2019-03-25T07:46:20.690Z,39.41
2019-03-25T07:47:20.739Z,39.83
2019-03-25T07:48:20.942Z,40
2019-03-25T07:49:20.803Z,40.03
2019-03-25T07:50:20.691Z,40.06
2019-03-25T07:51:20.727Z,39.96
2019-03-25T07:52:20.869Z,40.11
2019-03-25T07:53:20.848Z,40.02
2019-03-25T07:54:20.871Z,40.09
2019-03-25T07:55:20.858Z,40.08
2019-03-25T07:56:20.868Z,40.15
2019-03-25T07:57:21.007Z,40.07
2019-03-25T07:58:20.969Z,40.08
2019-03-25T07:59:20.907Z,40.12
2019-03-25T08:00:21.088Z,40.1
2019-03-25T08:01:20.955Z,40.12
2019-03-25T08:02:20.967Z,40.18
2019-03-25T08:03:21.044Z,40.11
2019-03-25T08:04:20.853Z,40.11
2019-03-25T08:05:21.004Z,40.17
2019-03-25T08:06:20.811Z,40.17
2019-03-25T08:07:20.860Z,40.2
2019-03-25T08:08:20.731Z,40.13
2019-03-25T08:09:22.012Z,40.21
2019-03-25T08:10:21.046Z,40.45
2019-03-25T08:11:20.751Z,41.07
2019-03-25T08:12:20.959Z,40.92
2019-03-25T08:13:22.569Z,40.86
2019-03-25T08:14:20.855Z,40.93
2019-03-25T08:15:20.840Z,40.87
2019-03-25T08:16:21.017Z,40.8
2019-03-25T08:17:20.928Z,40.96
2019-03-25T08:18:20.771Z,40.99
2019-03-25T08:19:20.806Z,40.9
2019-03-25T08:20:20.813Z,41.03
2019-03-25T08:21:20.980Z,40.94
2019-03-25T08:22:20.975Z,41.07
2019-03-25T08:23:20.781Z,41.1
2019-03-25T08:24:20.631Z,41.18
2019-03-25T08:25:20.723Z,41.24
2019-03-25T08:26:20.682Z,41.59
2019-03-25T08:27:20.787Z,41.62
2019-03-25T08:28:20.737Z,41.61
2019-03-25T08:29:20.745Z,42.32
2019-03-25T08:30:20.821Z,42.07
2019-03-25T08:31:20.823Z,42.27
2019-03-25T08:32:21.040Z,41.98
2019-03-25T08:33:20.819Z,42.3
2019-03-25T08:34:20.941Z,42.35
2019-03-25T08:35:20.754Z,42.3
2019-03-25T08:36:20.836Z,42.34
2019-03-25T08:37:20.999Z,42.67
2019-03-25T08:38:20.797Z,41.54
2019-03-25T08:39:20.900Z,41.45
2019-03-25T08:40:20.917Z,41.49
2019-03-25T08:41:20.877Z,41.49
2019-03-25T08:42:20.580Z,41.41
2019-03-25T08:43:20.630Z,41.42
2019-03-25T08:44:20.738Z,41.4
2019-03-25T08:45:20.602Z,41.44
2019-03-25T08:46:20.697Z,41.39
2019-03-25T08:47:20.657Z,40.73
2019-03-25T08:48:20.672Z,40.88
2019-03-25T08:49:20.869Z,40.84
2019-03-25T08:50:20.686Z,40.83
2019-03-25T08:51:20.710Z,40.93
2019-03-25T08:52:20.778Z,40.85
2019-03-25T08:53:20.837Z,40.88
2019-03-25T08:54:20.903Z,40.79
2019-03-25T08:55:20.880Z,40.89
2019-03-25T08:56:20.803Z,40.81
2019-03-25T08:57:20.887Z,40.81
2019-03-25T08:58:20.855Z,40.86
2019-03-25T08:59:20.824Z,40.78
2019-03-25T09:00:20.864Z,40.88
2019-03-25T09:01:20.657Z,40.82
2019-03-25T09:02:20.737Z,40.83
2019-03-25T09:03:20.639Z,41.06
2019-03-25T09:04:20.694Z,41.18
2019-03-25T09:05:20.751Z,41
2019-03-25T09:06:20.693Z,41.07
2019-03-25T09:07:20.726Z,40.72
2019-03-25T09:08:20.795Z,40.75
2019-03-25T09:09:20.781Z,40.72
2019-03-25T09:10:20.749Z,40.83
2019-03-25T09:11:20.759Z,40.81
2019-03-25T09:12:20.749Z,40.5
2019-03-25T09:13:20.776Z,40.71
2019-03-25T09:14:21.329Z,40.82
2019-03-25T09:15:20.783Z,40.79
2019-03-25T09:16:20.876Z,40.87
2019-03-25T09:17:20.845Z,40.88
2019-03-25T09:18:20.870Z,40.85
2019-03-25T09:19:20.991Z,40.91
2019-03-25T09:20:20.594Z,40.86
2019-03-25T09:21:20.612Z,40.9
2019-03-25T09:22:20.652Z,40.87
2019-03-25T09:23:20.644Z,40.87
2019-03-25T09:24:20.722Z,40.87
2019-03-25T09:25:20.776Z,40.85
2019-03-25T09:26:20.682Z,40.87
2019-03-25T09:27:20.724Z,40.84
2019-03-25T09:28:25.102Z,40.79
2019-03-25T09:29:20.690Z,40.82
2019-03-25T09:30:20.808Z,40.81
2019-03-25T09:31:20.846Z,40.81
2019-03-25T09:32:20.743Z,40.79
2019-03-25T09:33:20.809Z,40.82
2019-03-25T09:34:20.790Z,40.78
2019-03-25T09:35:20.934Z,40.79
2019-03-25T09:36:21.006Z,40.8
2019-03-25T09:37:20.816Z,40.79
2019-03-25T09:38:20.919Z,40.79
2019-03-25T09:39:20.607Z,40.79
2019-03-25T09:40:20.659Z,40.75
2019-03-25T09:41:20.688Z,40.73
2019-03-25T09:42:20.714Z,40.69
2019-03-25T09:43:20.715Z,40.75
2019-03-25T09:44:20.763Z,40.73
2019-03-25T09:45:20.806Z,40.7
2019-03-25T09:46:20.730Z,40.66
2019-03-25T09:47:20.709Z,40.75
2019-03-25T09:48:20.856Z,40.73
2019-03-25T09:49:20.857Z,40.67
2019-03-25T09:50:20.901Z,40.77
2019-03-25T09:51:20.981Z,40.69
2019-03-25T09:52:20.933Z,40.81
2019-03-25T09:53:20.878Z,40.89
2019-03-25T09:54:21.159Z,41.03
2019-03-25T09:55:20.869Z,41.39
2019-03-25T09:56:21.006Z,41.6
2019-03-25T09:57:20.755Z,41.68
2019-03-25T09:58:20.633Z,41.63
2019-03-25T09:59:20.752Z,41.74
2019-03-25T10:00:20.712Z,41.65
2019-03-25T10:01:20.629Z,41.64
2019-03-25T10:02:20.667Z,41.78
2019-03-25T10:03:20.665Z,41.63
2019-03-25T10:04:20.701Z,41.61
2019-03-25T10:05:20.675Z,41.56
2019-03-25T10:06:20.748Z,41.6
2019-03-25T10:07:20.757Z,41.48
2019-03-25T10:08:20.729Z,41.45
2019-03-25T10:09:20.726Z,41.68
2019-03-25T10:10:20.780Z,41.43
2019-03-25T10:11:20.819Z,41.42
2019-03-25T10:12:20.928Z,41.42
2019-03-25T10:13:20.864Z,41.38
2019-03-25T10:14:20.848Z,41.38
2019-03-25T10:15:20.579Z,41.46
2019-03-25T10:16:20.664Z,41.5
2019-03-25T10:17:20.752Z,41.28
2019-03-25T10:18:20.641Z,41.45
2019-03-25T10:19:20.833Z,41.43
2019-03-25T10:20:21.095Z,41.34
2019-03-25T10:21:20.703Z,41.37
2019-03-25T10:22:20.851Z,41.27
2019-03-25T10:23:20.821Z,41.62
2019-03-25T10:24:28.342Z,41.7
2019-03-25T10:25:20.859Z,41.61
2019-03-25T10:26:20.779Z,41.5
2019-03-25T10:27:20.770Z,41.82
2019-03-25T10:28:20.931Z,41.73
2019-03-25T10:29:20.853Z,42.26
2019-03-25T10:30:20.819Z,40.98
2019-03-25T10:31:20.936Z,41.11
2019-03-25T10:32:20.697Z,41.03
2019-03-25T10:33:20.593Z,40.97
2019-03-25T10:34:20.826Z,40.9
2019-03-25T10:35:20.702Z,40.97
2019-03-25T10:36:20.659Z,40.93
2019-03-25T10:37:20.625Z,40.97
2019-03-25T10:38:20.627Z,40.97
2019-03-25T10:39:20.628Z,40.97
2019-03-25T10:40:20.691Z,40.86
2019-03-25T10:41:20.713Z,40.34
2019-03-25T10:42:20.771Z,39.58
2019-03-25T10:43:20.735Z,39.71
2019-03-25T10:44:20.706Z,39.8
2019-03-25T10:45:21.080Z,40
2019-03-25T10:46:21.224Z,40.23
2019-03-25T10:47:20.786Z,40.5
2019-03-25T10:48:20.801Z,40.58
2019-03-25T10:49:20.842Z,40.67
2019-03-25T10:50:20.706Z,40.75
2019-03-25T10:51:20.642Z,40.71
2019-03-25T10:52:20.669Z,40.77
2019-03-25T10:53:20.634Z,40.87
2019-03-25T10:54:21.001Z,40.92
2019-03-25T10:55:20.745Z,40.99
2019-03-25T10:56:20.733Z,41.16
2019-03-25T10:57:20.701Z,41.17
2019-03-25T10:58:20.685Z,41.14
2019-03-25T10:59:20.720Z,41.16
2019-03-25T11:00:20.760Z,41.19
2019-03-25T11:01:20.822Z,41.1
2019-03-25T11:02:20.869Z,41.15
2019-03-25T11:03:20.787Z,41.2
2019-03-25T11:04:20.954Z,41.21
2019-03-25T11:05:20.883Z,41.2
2019-03-25T11:06:20.860Z,41.18
2019-03-25T11:07:21.779Z,41.17
2019-03-25T11:08:20.635Z,41.24
2019-03-25T11:09:20.626Z,41.18
2019-03-25T11:10:20.652Z,41.19
2019-03-25T11:11:20.605Z,41.18
2019-03-25T11:12:20.648Z,40.77
2019-03-25T11:13:20.790Z,40.73
2019-03-25T11:14:20.599Z,40.94
2019-03-25T11:15:20.668Z,41.07
2019-03-25T11:16:20.672Z,41.12
2019-03-25T11:17:20.699Z,41.16
2019-03-25T11:18:20.714Z,41.13
2019-03-25T11:19:20.945Z,41.21
2019-03-25T11:20:20.800Z,41.21
2019-03-25T11:21:20.860Z,41.23
2019-03-25T11:22:20.997Z,41.26
2019-03-25T11:23:20.767Z,41.16
2019-03-25T11:24:20.801Z,40.97
2019-03-25T11:25:20.782Z,41.01
2019-03-25T11:26:20.565Z,40.98
2019-03-25T11:27:20.588Z,41.04
2019-03-25T11:28:21.677Z,41
2019-03-25T11:29:20.739Z,41.01
2019-03-25T11:30:20.720Z,40.97
2019-03-25T11:31:20.723Z,40.93
2019-03-25T11:32:20.662Z,40.96
2019-03-25T11:33:20.719Z,41.02
2019-03-25T11:34:20.749Z,40.98
2019-03-25T11:35:20.737Z,41.02
2019-03-25T11:36:20.702Z,41.03
2019-03-25T11:37:20.835Z,41
2019-03-25T11:38:21.081Z,41.27
2019-03-25T11:39:20.863Z,41.24
2019-03-25T11:40:20.767Z,41.23
2019-03-25T11:41:20.783Z,41.18
2019-03-25T11:42:20.786Z,41.04
2019-03-25T11:43:20.790Z,41.03
2019-03-25T11:44:20.540Z,40.4
2019-03-25T11:45:20.567Z,40.38
2019-03-25T11:46:20.580Z,40.58
2019-03-25T11:47:20.727Z,39.75
2019-03-25T11:48:20.591Z,40.01
2019-03-25T11:49:20.731Z,40.18
2019-03-25T11:50:20.729Z,40.4
2019-03-25T11:51:20.651Z,40.51
2019-03-25T11:52:20.636Z,40.63
2019-03-25T11:53:20.662Z,40.67
2019-03-25T11:54:20.666Z,40.75
2019-03-25T11:55:20.684Z,40.78
2019-03-25T11:56:20.700Z,40.79
2019-03-25T11:57:20.729Z,40.79
2019-03-25T11:58:20.758Z,40.79
2019-03-25T11:59:20.776Z,40.83
2019-03-25T12:00:20.779Z,40.87
2019-03-25T12:01:20.687Z,40.88
2019-03-25T12:02:20.588Z,40.85
2019-03-25T12:03:20.590Z,40.85
2019-03-25T12:04:20.762Z,40.82
2019-03-25T12:05:20.636Z,40.78
2019-03-25T12:06:20.741Z,40.78
2019-03-25T12:07:20.708Z,40.78
2019-03-25T12:08:20.749Z,40.78
2019-03-25T12:09:20.683Z,40.76
2019-03-25T12:10:20.729Z,40.72
2019-03-25T12:11:21.065Z,40.74
2019-03-25T12:12:20.789Z,40.73
2019-03-25T12:13:20.896Z,40.75
2019-03-25T12:14:20.754Z,40.69
2019-03-25T12:15:20.844Z,40.76
2019-03-25T12:16:20.906Z,40.71
2019-03-25T12:17:20.789Z,40.75
2019-03-25T12:18:20.683Z,40.78
2019-03-25T12:19:20.585Z,40.72
2019-03-25T12:20:20.744Z,40.72
2019-03-25T12:21:20.558Z,40.67
2019-03-25T12:22:20.607Z,40.76
2019-03-25T12:23:26.957Z,40.79
2019-03-25T12:24:20.947Z,40.74
2019-03-25T12:25:20.669Z,40.79
2019-03-25T12:26:20.663Z,40.8
2019-03-25T12:27:21.030Z,40.74
2019-03-25T12:28:21.267Z,40.78
2019-03-25T12:29:31.004Z,40.77
2019-03-25T12:30:20.785Z,40.77
2019-03-25T12:31:20.711Z,40.78
2019-03-25T12:32:20.945Z,40.77
2019-03-25T12:33:20.965Z,40.83
2019-03-25T12:34:22.084Z,40.78
2019-03-25T12:35:20.776Z,40.81
2019-03-25T12:36:20.623Z,40.82
2019-03-25T12:37:20.687Z,40.81
2019-03-25T12:38:20.660Z,40.81
2019-03-25T12:39:20.591Z,40.79
2019-03-25T12:40:20.655Z,40.78
2019-03-25T12:41:20.737Z,40.72
2019-03-25T12:42:20.689Z,40.77
2019-03-25T12:43:20.673Z,40.77
2019-03-25T12:44:20.718Z,40.77
2019-03-25T12:45:20.689Z,40.77
2019-03-25T12:46:20.915Z,40.74
2019-03-25T12:47:20.731Z,40.73
2019-03-25T12:48:20.842Z,40.72
2019-03-25T12:49:20.820Z,40.71
2019-03-25T12:50:20.827Z,40.73
2019-03-25T12:51:20.831Z,40.75
2019-03-25T12:52:20.706Z,40.72
2019-03-25T12:53:20.705Z,40.72
2019-03-25T12:54:20.677Z,40.69
2019-03-25T12:55:21.116Z,40.71